createdAt,value
2023-05-17T00:00:58.711Z,9.00
2023-05-17T00:04:00.396Z,9.00
2023-05-17T00:07:02.156Z,8.90
2023-05-17T00:10:04.202Z,8.90
2023-05-17T00:13:05.815Z,8.70
2023-05-17T00:16:08.089Z,9.00
2023-05-17T00:19:09.853Z,8.60
2023-05-17T00:22:11.769Z,8.70
2023-05-17T00:25:13.399Z,8.80
2023-05-17T00:28:14.996Z,9.10
2023-05-17T00:31:17.674Z,9.20
2023-05-17T00:34:19.367Z,9.00
2023-05-17T00:37:21.032Z,10.10
2023-05-17T00:40:22.720Z,8.70
2023-05-17T00:43:26.060Z,9.10
2023-05-17T00:46:27.729Z,8.80
2023-05-17T00:49:29.440Z,10.20
2023-05-17T00:52:31.118Z,8.90
2023-05-17T00:55:33.513Z,8.90
2023-05-17T00:58:36.806Z,8.70
2023-05-17T01:01:42.332Z,9.10
2023-05-17T01:04:44.244Z,9.10
2023-05-17T01:07:45.858Z,9.40
2023-05-17T01:11:01.888Z,9.20
2023-05-17T01:14:32.581Z,8.80
2023-05-17T01:17:50.761Z,9.20
2023-05-17T01:20:54.198Z,9.10
2023-05-17T01:24:08.742Z,9.40
2023-05-17T01:27:12.773Z,9.20
2023-05-17T01:30:15.753Z,9.10
2023-05-17T01:33:19.798Z,9.20
2023-05-17T01:36:21.798Z,9.00
2023-05-17T01:39:24.644Z,8.90
2023-05-17T01:42:31.947Z,8.90
2023-05-17T01:45:47.357Z,8.90
2023-05-17T01:48:56.827Z,8.90
2023-05-17T01:52:08.536Z,8.50
2023-05-17T01:55:32.783Z,9.00
2023-05-17T01:58:43.382Z,8.80
2023-05-17T02:01:45.955Z,8.50
2023-05-17T02:04:48.192Z,8.90
2023-05-17T02:07:49.841Z,8.30
2023-05-17T02:10:51.569Z,8.40
2023-05-17T02:13:53.170Z,8.40
2023-05-17T02:16:54.775Z,8.80
2023-05-17T02:19:56.369Z,8.30
2023-05-17T02:22:57.968Z,8.50
2023-05-17T02:25:59.610Z,8.50
2023-05-17T02:29:01.209Z,8.70
2023-05-17T02:32:02.841Z,8.40
2023-05-17T02:35:04.790Z,8.50
2023-05-17T02:38:06.479Z,8.60
2023-05-17T02:41:08.218Z,8.50
2023-05-17T02:44:09.812Z,8.10
2023-05-17T02:47:11.483Z,8.30
2023-05-17T02:50:13.134Z,8.80
2023-05-17T02:53:14.728Z,8.70
2023-05-17T02:56:16.282Z,8.00
2023-05-17T02:59:17.986Z,8.20
2023-05-17T03:02:19.686Z,8.10
2023-05-17T03:05:21.370Z,8.30
2023-05-17T03:08:22.956Z,8.10
2023-05-17T03:11:24.557Z,8.20
2023-05-17T03:14:26.153Z,8.60
2023-05-17T03:17:27.891Z,8.50
2023-05-17T03:20:29.589Z,8.50
2023-05-17T03:23:31.264Z,9.10
2023-05-17T03:26:33.380Z,9.10
2023-05-17T03:29:34.993Z,9.20
2023-05-17T03:32:40.243Z,9.00
2023-05-17T03:35:42.210Z,8.70
2023-05-17T03:38:43.843Z,9.20
2023-05-17T03:41:45.600Z,9.10
2023-05-17T03:44:47.261Z,9.10
2023-05-17T03:47:48.933Z,9.30
2023-05-17T03:50:51.006Z,9.20
2023-05-17T03:53:58.377Z,9.40
2023-05-17T03:56:59.977Z,7.20
2023-05-17T04:00:01.757Z,10.20
2023-05-17T04:03:03.486Z,9.50
2023-05-17T04:06:08.664Z,9.70
2023-05-17T04:09:12.914Z,9.40
2023-05-17T04:12:15.112Z,9.60
2023-05-17T04:15:16.740Z,9.50
2023-05-17T04:18:18.376Z,9.60
2023-05-17T04:21:20.042Z,9.90
2023-05-17T04:24:21.646Z,9.90
2023-05-17T04:27:23.271Z,9.70
2023-05-17T04:30:24.908Z,9.90
2023-05-17T04:33:26.798Z,9.60
2023-05-17T04:36:28.498Z,9.30
2023-05-17T04:39:31.100Z,9.30
2023-05-17T04:42:32.708Z,9.60
2023-05-17T04:45:34.570Z,9.60
2023-05-17T04:48:36.574Z,9.90
2023-05-17T04:51:38.350Z,9.70
2023-05-17T04:54:39.922Z,9.70
2023-05-17T04:57:41.947Z,9.90
2023-05-17T05:00:43.580Z,10.00
2023-05-17T05:03:45.304Z,9.20
2023-05-17T05:06:47.144Z,9.90
2023-05-17T05:09:48.737Z,9.80
2023-05-17T05:12:50.634Z,10.10
2023-05-17T05:15:52.232Z,9.60
2023-05-17T05:18:54.128Z,9.80
2023-05-17T05:21:56.010Z,9.60
2023-05-17T05:24:57.585Z,9.70
2023-05-17T05:27:59.188Z,9.60
2023-05-17T05:31:01.189Z,9.90
2023-05-17T05:34:03.272Z,9.70
2023-05-17T05:37:05.369Z,10.20
2023-05-17T05:40:08.807Z,10.10
2023-05-17T05:43:10.395Z,9.90
2023-05-17T05:46:12.201Z,10.10
2023-05-17T05:49:13.869Z,10.20
2023-05-17T05:52:15.457Z,9.90
2023-05-17T05:55:17.060Z,10.40
2023-05-17T05:58:19.273Z,10.30
2023-05-17T06:01:21.174Z,10.30
2023-05-17T06:04:27.106Z,10.30
2023-05-17T06:07:38.293Z,12.10
2023-05-17T06:10:40.012Z,10.60
2023-05-17T06:13:41.707Z,10.50
2023-05-17T06:16:43.290Z,10.70
2023-05-17T06:19:44.939Z,10.70
2023-05-17T06:22:46.610Z,10.80
2023-05-17T06:25:48.261Z,10.80
2023-05-17T06:28:49.897Z,11.20
2023-05-17T06:31:51.512Z,11.20
2023-05-17T06:34:53.132Z,11.30
2023-05-17T06:37:54.787Z,11.10
2023-05-17T06:40:58.449Z,11.00
2023-05-17T06:44:00.042Z,11.50
2023-05-17T06:47:01.647Z,11.40
2023-05-17T06:50:03.913Z,11.80
2023-05-17T06:53:05.692Z,12.20
2023-05-17T06:56:07.495Z,11.60
2023-05-17T06:59:09.049Z,11.40
2023-05-17T07:02:10.848Z,12.00
2023-05-17T07:05:12.583Z,12.30
2023-05-17T07:08:15.503Z,12.00
2023-05-17T07:11:17.123Z,12.00
2023-05-17T07:14:18.815Z,12.10
2023-05-17T07:17:20.405Z,12.20
2023-05-17T07:20:22.263Z,12.20
2023-05-17T07:23:23.822Z,12.20
2023-05-17T07:26:25.564Z,12.00
2023-05-17T07:29:27.180Z,11.90
2023-05-17T07:32:28.830Z,11.60
2023-05-17T07:35:33.346Z,12.30
2023-05-17T07:38:37.986Z,11.40
2023-05-17T07:41:39.653Z,11.50
2023-05-17T07:44:41.329Z,11.20
2023-05-17T07:47:43.063Z,11.60
2023-05-17T07:50:44.878Z,11.80
2023-05-17T07:53:46.574Z,11.80
2023-05-17T07:56:48.161Z,14.20
2023-05-17T07:59:49.735Z,12.50
2023-05-17T08:02:51.532Z,12.50
2023-05-17T08:05:53.204Z,12.60
2023-05-17T08:08:54.821Z,12.70
2023-05-17T08:11:56.476Z,12.70
2023-05-17T08:14:58.121Z,13.20
2023-05-17T08:18:02.151Z,12.90
2023-05-17T08:21:05.410Z,15.40
2023-05-17T08:24:07.424Z,13.30
2023-05-17T08:27:13.008Z,13.50
2023-05-17T08:30:27.823Z,13.70
2023-05-17T08:33:30.357Z,13.60
2023-05-17T08:36:32.004Z,13.80
2023-05-17T08:39:33.661Z,13.90
2023-05-17T08:42:36.481Z,13.90
2023-05-17T08:45:38.687Z,14.00
2023-05-17T08:48:43.089Z,14.00
2023-05-17T08:51:46.918Z,14.30
2023-05-17T08:54:48.615Z,14.30
2023-05-17T08:57:50.400Z,14.30
2023-05-17T09:00:54.194Z,14.20
2023-05-17T09:03:56.448Z,13.70
2023-05-17T09:06:58.935Z,13.70
2023-05-17T09:10:00.565Z,13.50
2023-05-17T09:13:02.597Z,13.30
2023-05-17T09:16:13.944Z,13.70
2023-05-17T09:19:17.584Z,14.10
2023-05-17T09:22:19.943Z,14.50
2023-05-17T09:25:24.397Z,14.20
2023-05-17T09:28:29.339Z,14.10
2023-05-17T09:31:31.478Z,14.90
2023-05-17T09:34:33.720Z,14.10
2023-05-17T09:37:38.312Z,14.10
2023-05-17T09:40:48.068Z,13.50
2023-05-17T09:43:49.661Z,13.60
2023-05-17T09:46:51.503Z,13.40
2023-05-17T09:49:53.195Z,14.00
2023-05-17T09:52:54.839Z,14.40
2023-05-17T09:55:58.652Z,14.60
2023-05-17T09:59:10.549Z,14.40
2023-05-17T10:02:20.052Z,14.10
2023-05-17T10:05:22.509Z,14.30
2023-05-17T10:08:27.447Z,14.20
2023-05-17T10:11:34.284Z,14.90
2023-05-17T10:14:36.914Z,15.00
2023-05-17T10:17:43.948Z,14.30
2023-05-17T10:20:48.065Z,13.90
2023-05-17T10:23:50.318Z,14.10
2023-05-17T10:26:52.100Z,14.60
2023-05-17T10:29:54.864Z,14.20
2023-05-17T10:32:57.114Z,14.60
2023-05-17T10:35:59.687Z,14.60
2023-05-17T10:39:02.259Z,14.80
2023-05-17T10:42:14.839Z,14.60
2023-05-17T10:45:19.947Z,15.70
2023-05-17T10:48:21.853Z,15.00
2023-05-17T10:51:26.041Z,15.20
2023-05-17T10:54:39.184Z,14.90
2023-05-17T11:00:55.662Z,14.80
2023-05-17T11:03:57.907Z,15.30
2023-05-17T11:07:18.928Z,15.10
2023-05-17T11:10:20.713Z,16.80
2023-05-17T11:13:25.185Z,15.50
2023-05-17T11:16:34.101Z,15.10
2023-05-17T11:19:36.534Z,15.50
2023-05-17T11:22:43.647Z,15.40
2023-05-17T11:25:48.014Z,14.90
2023-05-17T11:29:02.239Z,15.40
2023-05-17T11:32:07.540Z,15.00
2023-05-17T11:35:12.603Z,14.90
2023-05-17T11:38:21.777Z,15.10
2023-05-17T11:41:26.847Z,15.20
2023-05-17T11:44:33.144Z,15.10
2023-05-17T11:47:39.496Z,15.20
2023-05-17T11:50:42.457Z,15.40
2023-05-17T11:53:44.569Z,15.70
2023-05-17T11:56:46.313Z,15.50
2023-05-17T11:59:48.049Z,15.40
2023-05-17T12:02:49.672Z,15.10
2023-05-17T12:06:14.569Z,15.70
2023-05-17T12:09:19.103Z,16.10
2023-05-17T12:12:22.439Z,15.70
2023-05-17T12:15:24.744Z,13.60
2023-05-17T12:18:48.329Z,15.80
2023-05-17T12:21:51.028Z,16.30
2023-05-17T12:24:52.798Z,17.40
2023-05-17T12:28:14.321Z,16.30
2023-05-17T12:31:19.308Z,16.20
2023-05-17T12:34:21.800Z,16.00
2023-05-17T12:37:23.497Z,16.00
2023-05-17T12:40:25.244Z,16.00
2023-05-17T12:43:28.534Z,16.30
2023-05-17T12:46:32.062Z,16.20
2023-05-17T12:49:38.778Z,16.30
2023-05-17T12:52:41.347Z,17.10
2023-05-17T12:55:42.932Z,17.10
2023-05-17T12:58:45.759Z,16.90
2023-05-17T13:01:52.415Z,17.00
2023-05-17T13:04:54.410Z,17.10
2023-05-17T13:07:56.202Z,17.00
2023-05-17T13:11:13.367Z,16.90
2023-05-17T13:14:15.012Z,16.60
2023-05-17T13:17:18.644Z,16.50
2023-05-17T13:20:20.567Z,16.70
2023-05-17T13:23:22.172Z,17.70
2023-05-17T13:26:23.777Z,17.40
2023-05-17T13:29:38.048Z,17.60
2023-05-17T13:32:40.615Z,18.20
2023-05-17T13:35:42.273Z,18.10
2023-05-17T13:38:43.842Z,17.80
2023-05-17T13:41:46.315Z,17.50
2023-05-17T13:44:48.350Z,17.90
2023-05-17T13:47:49.982Z,18.20
2023-05-17T13:50:52.165Z,20.90
2023-05-17T13:53:53.857Z,17.80
2023-05-17T13:56:57.282Z,17.50
2023-05-17T13:59:58.871Z,18.00
2023-05-17T14:03:00.571Z,18.40
2023-05-17T14:06:05.383Z,20.60
2023-05-17T14:09:07.107Z,18.80
2023-05-17T14:12:08.871Z,20.60
2023-05-17T14:15:10.987Z,19.50
2023-05-17T14:18:12.740Z,19.70
2023-05-17T14:21:14.433Z,21.50
2023-05-17T14:24:16.250Z,19.90
2023-05-17T14:27:17.937Z,20.00
2023-05-17T14:30:20.607Z,21.10
2023-05-17T14:33:22.308Z,20.00
2023-05-17T14:36:24.140Z,21.40
2023-05-17T14:39:26.455Z,20.90
2023-05-17T14:42:28.539Z,20.30
2023-05-17T14:45:30.175Z,20.10
2023-05-17T14:48:32.881Z,19.80
2023-05-17T14:51:34.555Z,20.10
2023-05-17T14:54:36.470Z,21.40
2023-05-17T14:57:39.945Z,20.40
2023-05-17T15:00:47.269Z,20.70
2023-05-17T15:03:48.975Z,20.40
2023-05-17T15:06:51.112Z,20.80
2023-05-17T15:09:52.905Z,19.90
2023-05-17T15:12:54.481Z,19.10
2023-05-17T15:15:56.215Z,18.70
2023-05-17T15:18:58.101Z,18.70
2023-05-17T15:21:59.818Z,18.40
2023-05-17T15:25:01.644Z,18.10
2023-05-17T15:28:03.281Z,17.80
2023-05-17T15:31:10.607Z,17.90
2023-05-17T15:34:12.427Z,18.60
2023-05-17T15:37:14.169Z,19.70
2023-05-17T15:40:16.773Z,17.70
2023-05-17T15:43:18.362Z,18.50
2023-05-17T15:46:20.556Z,17.30
2023-05-17T15:49:22.138Z,17.00
2023-05-17T15:52:23.769Z,16.70
2023-05-17T15:55:25.549Z,16.80
2023-05-17T15:58:33.121Z,16.80
2023-05-17T16:01:34.850Z,17.50
2023-05-17T16:04:36.551Z,16.60
2023-05-17T16:07:38.153Z,16.20
2023-05-17T16:10:39.815Z,16.30
2023-05-17T16:13:41.590Z,16.30
2023-05-17T16:16:45.079Z,18.00
2023-05-17T16:19:46.960Z,16.10
2023-05-17T16:22:49.277Z,16.20
2023-05-17T16:25:51.398Z,15.90
2023-05-17T16:28:53.160Z,18.10
2023-05-17T16:31:54.854Z,15.70
2023-05-17T16:34:56.471Z,16.10
2023-05-17T16:37:58.090Z,16.10
2023-05-17T16:41:03.174Z,17.40
2023-05-17T16:44:04.982Z,15.60
2023-05-17T16:47:06.752Z,15.90
2023-05-17T16:50:09.031Z,15.80
2023-05-17T16:53:10.741Z,15.70
2023-05-17T16:56:12.332Z,17.20
2023-05-17T16:59:15.601Z,15.60
2023-05-17T17:02:17.680Z,16.10
2023-05-17T17:05:20.568Z,15.70
2023-05-17T17:08:22.138Z,15.70
2023-05-17T17:11:23.831Z,16.10
2023-05-17T17:14:25.994Z,16.60
2023-05-17T17:17:29.115Z,15.50
2023-05-17T17:20:31.122Z,15.60
2023-05-17T17:23:32.920Z,15.60
2023-05-17T17:26:38.120Z,15.60
2023-05-17T17:29:39.771Z,16.00
2023-05-17T17:32:41.499Z,18.00
2023-05-17T17:35:43.212Z,16.50
2023-05-17T17:38:44.923Z,18.60
2023-05-17T17:41:46.573Z,17.50
2023-05-17T17:44:48.750Z,17.30
2023-05-17T17:47:50.429Z,16.90
2023-05-17T17:50:52.102Z,16.20
2023-05-17T17:53:54.064Z,17.40
2023-05-17T17:56:55.889Z,15.90
2023-05-17T17:59:58.238Z,17.30
2023-05-17T18:02:59.908Z,16.50
2023-05-17T18:06:01.674Z,16.40
2023-05-17T18:09:03.387Z,15.60
2023-05-17T18:12:05.362Z,14.40
2023-05-17T18:15:07.511Z,15.20
2023-05-17T18:18:09.148Z,15.10
2023-05-17T18:21:11.424Z,15.00
2023-05-17T18:24:13.050Z,14.70
2023-05-17T18:27:14.980Z,14.20
2023-05-17T18:30:18.420Z,14.80
2023-05-17T18:33:20.153Z,14.60
2023-05-17T18:36:21.867Z,14.60
2023-05-17T18:39:23.585Z,14.30
2023-05-17T18:42:25.262Z,14.00
2023-05-17T18:45:26.952Z,14.40
2023-05-17T18:48:28.642Z,13.90
2023-05-17T18:51:31.496Z,14.20
2023-05-17T18:54:33.266Z,14.00
2023-05-17T18:57:34.862Z,14.00
2023-05-17T19:00:36.867Z,13.80
2023-05-17T19:03:38.564Z,13.60
2023-05-17T19:06:43.380Z,15.20
2023-05-17T19:09:45.850Z,13.60
2023-05-17T19:12:47.507Z,13.70
2023-05-17T19:15:49.466Z,13.40
2023-05-17T19:18:51.116Z,13.50
2023-05-17T19:21:52.757Z,13.20
2023-05-17T19:24:54.367Z,13.20
2023-05-17T19:27:56.055Z,12.80
2023-05-17T19:30:57.727Z,13.10
2023-05-17T19:33:59.508Z,13.20
2023-05-17T19:37:01.149Z,12.70
2023-05-17T19:40:05.865Z,13.30
2023-05-17T19:43:07.626Z,12.80
2023-05-17T19:46:11.485Z,12.60
2023-05-17T19:49:13.162Z,12.90
2023-05-17T19:52:14.795Z,13.10
2023-05-17T19:55:21.748Z,13.00
2023-05-17T19:58:25.229Z,12.90
2023-05-17T20:01:26.961Z,12.40
2023-05-17T20:04:28.556Z,12.40
2023-05-17T20:07:30.591Z,12.70
2023-05-17T20:10:32.366Z,12.80
2023-05-17T20:13:34.807Z,12.30
2023-05-17T20:16:36.471Z,12.60
2023-05-17T20:19:38.479Z,14.30
2023-05-17T20:22:41.020Z,12.40
2023-05-17T20:25:42.702Z,14.30
2023-05-17T20:28:44.990Z,11.90
2023-05-17T20:31:46.630Z,13.60
2023-05-17T20:34:48.225Z,11.70
2023-05-17T20:37:50.049Z,11.80
2023-05-17T20:40:52.109Z,13.10
2023-05-17T20:43:53.934Z,13.80
2023-05-17T20:46:56.809Z,12.10
2023-05-17T20:49:59.661Z,11.90
2023-05-17T20:53:01.488Z,11.90
2023-05-17T20:56:03.226Z,12.10
2023-05-17T20:59:04.865Z,12.00
2023-05-17T21:02:06.938Z,11.60
2023-05-17T21:05:09.969Z,11.60
2023-05-17T21:08:12.774Z,11.60
2023-05-17T21:11:18.953Z,11.90
2023-05-17T21:14:20.666Z,11.60
2023-05-17T21:17:22.329Z,11.70
2023-05-17T21:20:24.920Z,11.50
2023-05-17T21:23:26.616Z,11.30
2023-05-17T21:29:35.391Z,11.20
2023-05-17T21:32:37.128Z,11.50
2023-05-17T21:35:38.847Z,11.50
2023-05-17T21:38:40.499Z,11.20
2023-05-17T21:41:42.167Z,11.30
2023-05-17T21:44:43.752Z,11.10
2023-05-17T21:47:45.451Z,11.00
2023-05-17T21:50:47.116Z,11.40
2023-05-17T21:53:50.292Z,11.20
2023-05-17T21:56:52.202Z,10.80
2023-05-17T21:59:53.819Z,10.70
2023-05-17T22:02:56.138Z,10.80
2023-05-17T22:05:57.802Z,10.90
2023-05-17T22:08:59.427Z,10.80
2023-05-17T22:12:01.041Z,10.40
2023-05-17T22:15:02.627Z,10.80
2023-05-17T22:18:05.199Z,10.90
2023-05-17T22:21:08.669Z,11.00
2023-05-17T22:24:10.412Z,9.30
2023-05-17T22:27:12.400Z,10.60
2023-05-17T22:30:14.104Z,10.40
2023-05-17T22:33:15.683Z,10.70
2023-05-17T22:36:18.951Z,10.70
2023-05-17T22:39:20.633Z,10.40
2023-05-17T22:42:22.650Z,10.40
2023-05-17T22:45:29.929Z,10.30
2023-05-17T22:48:32.408Z,10.50
2023-05-17T22:51:34.921Z,10.50
2023-05-17T22:54:37.880Z,10.30
2023-05-17T22:57:39.484Z,12.00
2023-05-17T23:00:41.537Z,10.40
2023-05-17T23:03:43.205Z,10.10
2023-05-17T23:06:44.843Z,11.30
2023-05-17T23:09:47.029Z,10.20
2023-05-17T23:12:50.784Z,10.00
2023-05-17T23:15:53.950Z,10.40
2023-05-17T23:18:55.649Z,9.80
2023-05-17T23:21:57.708Z,9.80
2023-05-17T23:25:00.255Z,9.90
2023-05-17T23:28:04.352Z,10.80
2023-05-17T23:31:06.034Z,9.70
2023-05-17T23:34:07.690Z,9.60
2023-05-17T23:37:09.282Z,9.40
2023-05-17T23:40:11.662Z,9.50
2023-05-17T23:43:13.332Z,9.50
2023-05-17T23:46:19.384Z,9.70
2023-05-17T23:49:22.687Z,9.60
2023-05-17T23:52:24.292Z,9.50
2023-05-17T23:55:25.983Z,9.50
2023-05-17T23:58:27.622Z,9.70
